sensor_id;sensor_type;location;lat;lon;timestamp;P1;durP1;ratioP1;P2;durP2;ratioP2
67696;SDS011;54486;51.442;6.778;2023-06-22T00:00:11;9.45;;;4.20;;
67696;SDS011;54486;51.442;6.778;2023-06-22T00:02:42;8.73;;;4.00;;
67696;SDS011;54486;51.442;6.778;2023-06-22T00:05:09;8.77;;;4.38;;
67696;SDS011;54486;51.442;6.778;2023-06-22T00:07:36;9.43;;;3.83;;
67696;SDS011;54486;51.442;6.778;2023-06-22T00:10:03;8.57;;;3.50;;
67696;SDS011;54486;51.442;6.778;2023-06-22T00:12:30;9.38;;;3.70;;
67696;SDS011;54486;51.442;6.778;2023-06-22T00:14:58;9.77;;;3.70;;
67696;SDS011;54486;51.442;6.778;2023-06-22T00:17:25;8.82;;;4.03;;
67696;SDS011;54486;51.442;6.778;2023-06-22T00:19:53;9.73;;;4.03;;
67696;SDS011;54486;51.442;6.778;2023-06-22T00:22:21;8.97;;;3.60;;
67696;SDS011;54486;51.442;6.778;2023-06-22T00:24:56;9.57;;;4.05;;
67696;SDS011;54486;51.442;6.778;2023-06-22T00:27:23;8.88;;;3.67;;
67696;SDS011;54486;51.442;6.778;2023-06-22T00:29:49;10.20;;;4.28;;
67696;SDS011;54486;51.442;6.778;2023-06-22T00:32:17;9.70;;;4.43;;
67696;SDS011;54486;51.442;6.778;2023-06-22T00:34:44;9.07;;;3.78;;
67696;SDS011;54486;51.442;6.778;2023-06-22T00:37:11;8.63;;;3.85;;
67696;SDS011;54486;51.442;6.778;2023-06-22T00:39:38;9.20;;;3.90;;
67696;SDS011;54486;51.442;6.778;2023-06-22T00:42:06;10.15;;;3.80;;
67696;SDS011;54486;51.442;6.778;2023-06-22T00:44:33;8.93;;;3.80;;
67696;SDS011;54486;51.442;6.778;2023-06-22T00:47:00;9.65;;;4.07;;
67696;SDS011;54486;51.442;6.778;2023-06-22T00:49:27;9.85;;;4.15;;
67696;SDS011;54486;51.442;6.778;2023-06-22T00:51:56;11.05;;;3.80;;
67696;SDS011;54486;51.442;6.778;2023-06-22T00:54:24;8.38;;;3.42;;
67696;SDS011;54486;51.442;6.778;2023-06-22T00:56:53;9.13;;;3.83;;
67696;SDS011;54486;51.442;6.778;2023-06-22T00:59:23;9.43;;;4.00;;
67696;SDS011;54486;51.442;6.778;2023-06-22T01:01:51;9.60;;;3.92;;
67696;SDS011;54486;51.442;6.778;2023-06-22T01:04:18;9.10;;;3.50;;
67696;SDS011;54486;51.442;6.778;2023-06-22T01:06:47;10.05;;;4.47;;
67696;SDS011;54486;51.442;6.778;2023-06-22T01:09:27;9.40;;;4.05;;
67696;SDS011;54486;51.442;6.778;2023-06-22T01:12:04;9.45;;;4.00;;
67696;SDS011;54486;51.442;6.778;2023-06-22T01:17:10;10.80;;;4.20;;
67696;SDS011;54486;51.442;6.778;2023-06-22T01:19:49;10.40;;;4.60;;
67696;SDS011;54486;51.442;6.778;2023-06-22T01:22:24;10.13;;;4.57;;
67696;SDS011;54486;51.442;6.778;2023-06-22T01:30:08;10.20;;;4.75;;
67696;SDS011;54486;51.442;6.778;2023-06-22T01:32:38;8.43;;;3.85;;
67696;SDS011;54486;51.442;6.778;2023-06-22T01:35:09;9.85;;;4.32;;
67696;SDS011;54486;51.442;6.778;2023-06-22T01:37:38;10.30;;;4.43;;
67696;SDS011;54486;51.442;6.778;2023-06-22T01:40:05;10.30;;;4.30;;
67696;SDS011;54486;51.442;6.778;2023-06-22T01:42:35;9.20;;;4.07;;
67696;SDS011;54486;51.442;6.778;2023-06-22T01:45:03;9.43;;;4.73;;
67696;SDS011;54486;51.442;6.778;2023-06-22T01:47:32;8.77;;;4.20;;
67696;SDS011;54486;51.442;6.778;2023-06-22T01:50:03;10.80;;;4.78;;
67696;SDS011;54486;51.442;6.778;2023-06-22T01:52:30;11.68;;;4.80;;
67696;SDS011;54486;51.442;6.778;2023-06-22T01:55:01;11.03;;;4.47;;
67696;SDS011;54486;51.442;6.778;2023-06-22T01:57:29;10.73;;;4.80;;
67696;SDS011;54486;51.442;6.778;2023-06-22T02:00:00;10.50;;;5.05;;
67696;SDS011;54486;51.442;6.778;2023-06-22T02:02:32;10.68;;;4.57;;
67696;SDS011;54486;51.442;6.778;2023-06-22T02:05:05;11.20;;;4.82;;
67696;SDS011;54486;51.442;6.778;2023-06-22T02:07:34;10.27;;;4.50;;
67696;SDS011;54486;51.442;6.778;2023-06-22T02:10:09;11.32;;;5.07;;
67696;SDS011;54486;51.442;6.778;2023-06-22T02:12:39;9.80;;;4.95;;
67696;SDS011;54486;51.442;6.778;2023-06-22T02:15:09;10.52;;;4.72;;
67696;SDS011;54486;51.442;6.778;2023-06-22T02:17:36;10.52;;;4.55;;
67696;SDS011;54486;51.442;6.778;2023-06-22T02:20:04;11.30;;;5.18;;
67696;SDS011;54486;51.442;6.778;2023-06-22T02:22:34;10.15;;;4.97;;
67696;SDS011;54486;51.442;6.778;2023-06-22T02:25:01;10.55;;;4.97;;
67696;SDS011;54486;51.442;6.778;2023-06-22T02:27:29;10.57;;;4.93;;
67696;SDS011;54486;51.442;6.778;2023-06-22T02:29:56;10.65;;;5.32;;
67696;SDS011;54486;51.442;6.778;2023-06-22T02:32:23;9.50;;;4.93;;
67696;SDS011;54486;51.442;6.778;2023-06-22T02:34:52;10.73;;;5.10;;
67696;SDS011;54486;51.442;6.778;2023-06-22T02:37:19;11.27;;;5.15;;
67696;SDS011;54486;51.442;6.778;2023-06-22T02:39:46;10.63;;;4.70;;
67696;SDS011;54486;51.442;6.778;2023-06-22T02:42:14;12.55;;;5.00;;
67696;SDS011;54486;51.442;6.778;2023-06-22T02:44:41;11.95;;;5.18;;
67696;SDS011;54486;51.442;6.778;2023-06-22T02:47:08;10.80;;;5.28;;
67696;SDS011;54486;51.442;6.778;2023-06-22T02:49:36;13.10;;;6.03;;
67696;SDS011;54486;51.442;6.778;2023-06-22T02:52:03;10.40;;;5.03;;
67696;SDS011;54486;51.442;6.778;2023-06-22T02:54:30;12.65;;;5.47;;
67696;SDS011;54486;51.442;6.778;2023-06-22T02:56:58;11.40;;;5.00;;
67696;SDS011;54486;51.442;6.778;2023-06-22T02:59:25;10.20;;;5.10;;
67696;SDS011;54486;51.442;6.778;2023-06-22T03:01:52;10.45;;;4.88;;
67696;SDS011;54486;51.442;6.778;2023-06-22T03:04:20;11.18;;;5.57;;
67696;SDS011;54486;51.442;6.778;2023-06-22T03:06:47;11.00;;;5.30;;
67696;SDS011;54486;51.442;6.778;2023-06-22T03:09:18;11.25;;;5.72;;
67696;SDS011;54486;51.442;6.778;2023-06-22T03:11:45;12.02;;;6.15;;
67696;SDS011;54486;51.442;6.778;2023-06-22T03:14:12;10.75;;;5.43;;
67696;SDS011;54486;51.442;6.778;2023-06-22T03:16:40;10.75;;;5.60;;
67696;SDS011;54486;51.442;6.778;2023-06-22T03:19:08;10.95;;;6.07;;
67696;SDS011;54486;51.442;6.778;2023-06-22T03:21:36;11.32;;;5.80;;
67696;SDS011;54486;51.442;6.778;2023-06-22T03:24:05;11.18;;;5.70;;
67696;SDS011;54486;51.442;6.778;2023-06-22T03:26:34;10.95;;;5.50;;
67696;SDS011;54486;51.442;6.778;2023-06-22T03:29:01;12.00;;;5.45;;
67696;SDS011;54486;51.442;6.778;2023-06-22T03:31:29;11.57;;;5.68;;
67696;SDS011;54486;51.442;6.778;2023-06-22T03:33:56;13.00;;;6.20;;
67696;SDS011;54486;51.442;6.778;2023-06-22T03:36:23;12.57;;;6.38;;
67696;SDS011;54486;51.442;6.778;2023-06-22T03:38:51;12.40;;;5.80;;
67696;SDS011;54486;51.442;6.778;2023-06-22T03:41:19;11.93;;;5.88;;
67696;SDS011;54486;51.442;6.778;2023-06-22T03:43:46;12.77;;;6.43;;
67696;SDS011;54486;51.442;6.778;2023-06-22T03:46:14;12.35;;;6.05;;
67696;SDS011;54486;51.442;6.778;2023-06-22T03:48:41;13.50;;;6.28;;
67696;SDS011;54486;51.442;6.778;2023-06-22T03:51:08;12.50;;;6.05;;
67696;SDS011;54486;51.442;6.778;2023-06-22T03:53:36;12.88;;;6.38;;
67696;SDS011;54486;51.442;6.778;2023-06-22T03:56:03;12.68;;;6.43;;
67696;SDS011;54486;51.442;6.778;2023-06-22T03:58:30;13.85;;;6.35;;
67696;SDS011;54486;51.442;6.778;2023-06-22T04:00:59;12.75;;;6.38;;
67696;SDS011;54486;51.442;6.778;2023-06-22T04:03:26;12.45;;;6.57;;
67696;SDS011;54486;51.442;6.778;2023-06-22T04:05:54;14.18;;;7.13;;
67696;SDS011;54486;51.442;6.778;2023-06-22T04:08:21;13.05;;;6.60;;
67696;SDS011;54486;51.442;6.778;2023-06-22T04:10:49;12.07;;;6.50;;
67696;SDS011;54486;51.442;6.778;2023-06-22T04:13:16;12.02;;;6.05;;
67696;SDS011;54486;51.442;6.778;2023-06-22T04:15:43;12.63;;;5.85;;
67696;SDS011;54486;51.442;6.778;2023-06-22T04:18:10;11.68;;;6.40;;
67696;SDS011;54486;51.442;6.778;2023-06-22T04:20:38;12.57;;;6.68;;
67696;SDS011;54486;51.442;6.778;2023-06-22T04:23:05;13.37;;;7.07;;
67696;SDS011;54486;51.442;6.778;2023-06-22T04:25:32;12.27;;;6.53;;
67696;SDS011;54486;51.442;6.778;2023-06-22T04:27:59;14.60;;;7.40;;
67696;SDS011;54486;51.442;6.778;2023-06-22T04:30:26;13.13;;;6.25;;
67696;SDS011;54486;51.442;6.778;2023-06-22T04:32:53;12.47;;;6.50;;
67696;SDS011;54486;51.442;6.778;2023-06-22T04:35:24;12.10;;;6.72;;
67696;SDS011;54486;51.442;6.778;2023-06-22T04:37:52;12.85;;;6.80;;
67696;SDS011;54486;51.442;6.778;2023-06-22T04:40:23;13.83;;;6.77;;
67696;SDS011;54486;51.442;6.778;2023-06-22T04:42:51;13.02;;;6.82;;
67696;SDS011;54486;51.442;6.778;2023-06-22T04:45:20;14.65;;;7.00;;
67696;SDS011;54486;51.442;6.778;2023-06-22T04:47:48;14.10;;;6.72;;
67696;SDS011;54486;51.442;6.778;2023-06-22T04:50:15;12.85;;;6.63;;
67696;SDS011;54486;51.442;6.778;2023-06-22T04:52:43;12.02;;;6.57;;
67696;SDS011;54486;51.442;6.778;2023-06-22T04:55:10;13.07;;;7.03;;
67696;SDS011;54486;51.442;6.778;2023-06-22T04:57:40;13.63;;;6.47;;
67696;SDS011;54486;51.442;6.778;2023-06-22T05:00:07;14.90;;;7.25;;
67696;SDS011;54486;51.442;6.778;2023-06-22T05:02:40;14.47;;;6.87;;
67696;SDS011;54486;51.442;6.778;2023-06-22T05:05:09;13.20;;;6.90;;
67696;SDS011;54486;51.442;6.778;2023-06-22T05:07:42;14.57;;;7.50;;
67696;SDS011;54486;51.442;6.778;2023-06-22T05:10:11;13.93;;;6.68;;
67696;SDS011;54486;51.442;6.778;2023-06-22T05:12:40;12.18;;;6.80;;
67696;SDS011;54486;51.442;6.778;2023-06-22T05:15:08;13.40;;;6.78;;
67696;SDS011;54486;51.442;6.778;2023-06-22T05:17:37;12.98;;;6.68;;
67696;SDS011;54486;51.442;6.778;2023-06-22T05:20:12;13.13;;;7.07;;
67696;SDS011;54486;51.442;6.778;2023-06-22T05:22:41;14.45;;;7.00;;
67696;SDS011;54486;51.442;6.778;2023-06-22T05:25:10;15.27;;;7.20;;
67696;SDS011;54486;51.442;6.778;2023-06-22T05:27:39;14.43;;;6.45;;
67696;SDS011;54486;51.442;6.778;2023-06-22T05:30:06;12.85;;;7.07;;
67696;SDS011;54486;51.442;6.778;2023-06-22T05:32:36;13.55;;;6.85;;
67696;SDS011;54486;51.442;6.778;2023-06-22T05:35:04;13.30;;;7.30;;
67696;SDS011;54486;51.442;6.778;2023-06-22T05:37:31;12.57;;;6.20;;
67696;SDS011;54486;51.442;6.778;2023-06-22T05:39:58;12.77;;;6.13;;
67696;SDS011;54486;51.442;6.778;2023-06-22T05:42:25;13.82;;;6.55;;
67696;SDS011;54486;51.442;6.778;2023-06-22T05:44:52;13.57;;;6.82;;
67696;SDS011;54486;51.442;6.778;2023-06-22T05:47:20;15.33;;;7.33;;
67696;SDS011;54486;51.442;6.778;2023-06-22T05:49:49;14.00;;;7.40;;
67696;SDS011;54486;51.442;6.778;2023-06-22T05:52:17;15.48;;;7.82;;
67696;SDS011;54486;51.442;6.778;2023-06-22T05:54:44;16.08;;;7.65;;
67696;SDS011;54486;51.442;6.778;2023-06-22T05:57:11;14.40;;;7.43;;
67696;SDS011;54486;51.442;6.778;2023-06-22T05:59:40;14.45;;;7.30;;
67696;SDS011;54486;51.442;6.778;2023-06-22T06:02:08;13.60;;;6.88;;
67696;SDS011;54486;51.442;6.778;2023-06-22T06:04:35;14.25;;;7.93;;
67696;SDS011;54486;51.442;6.778;2023-06-22T06:07:02;15.10;;;8.02;;
67696;SDS011;54486;51.442;6.778;2023-06-22T06:09:30;13.70;;;8.02;;
67696;SDS011;54486;51.442;6.778;2023-06-22T06:11:57;13.90;;;7.65;;
67696;SDS011;54486;51.442;6.778;2023-06-22T06:14:24;15.32;;;8.05;;
67696;SDS011;54486;51.442;6.778;2023-06-22T06:16:51;13.77;;;7.68;;
67696;SDS011;54486;51.442;6.778;2023-06-22T06:19:18;15.20;;;7.85;;
67696;SDS011;54486;51.442;6.778;2023-06-22T06:21:45;14.63;;;7.82;;
67696;SDS011;54486;51.442;6.778;2023-06-22T06:24:13;15.18;;;8.35;;
67696;SDS011;54486;51.442;6.778;2023-06-22T06:26:40;14.50;;;8.20;;
67696;SDS011;54486;51.442;6.778;2023-06-22T06:29:09;14.43;;;8.40;;
67696;SDS011;54486;51.442;6.778;2023-06-22T06:31:36;15.48;;;8.45;;
67696;SDS011;54486;51.442;6.778;2023-06-22T06:34:03;16.15;;;9.00;;
67696;SDS011;54486;51.442;6.778;2023-06-22T06:36:32;15.82;;;8.93;;
67696;SDS011;54486;51.442;6.778;2023-06-22T06:39:00;15.65;;;8.48;;
67696;SDS011;54486;51.442;6.778;2023-06-22T06:41:27;15.00;;;8.57;;
67696;SDS011;54486;51.442;6.778;2023-06-22T06:43:55;16.02;;;8.82;;
67696;SDS011;54486;51.442;6.778;2023-06-22T06:46:22;16.05;;;9.15;;
67696;SDS011;54486;51.442;6.778;2023-06-22T06:48:49;16.83;;;9.50;;
67696;SDS011;54486;51.442;6.778;2023-06-22T06:51:17;17.58;;;9.13;;
67696;SDS011;54486;51.442;6.778;2023-06-22T06:53:44;16.93;;;9.20;;
67696;SDS011;54486;51.442;6.778;2023-06-22T06:56:11;17.33;;;9.30;;
67696;SDS011;54486;51.442;6.778;2023-06-22T06:58:41;16.05;;;9.05;;
67696;SDS011;54486;51.442;6.778;2023-06-22T07:01:09;16.85;;;9.38;;
67696;SDS011;54486;51.442;6.778;2023-06-22T07:03:36;18.08;;;9.20;;
67696;SDS011;54486;51.442;6.778;2023-06-22T07:06:03;15.73;;;8.90;;
67696;SDS011;54486;51.442;6.778;2023-06-22T07:08:31;16.98;;;8.95;;
67696;SDS011;54486;51.442;6.778;2023-06-22T07:10:58;15.77;;;8.50;;
67696;SDS011;54486;51.442;6.778;2023-06-22T07:13:25;16.92;;;8.65;;
67696;SDS011;54486;51.442;6.778;2023-06-22T07:15:52;17.47;;;9.23;;
67696;SDS011;54486;51.442;6.778;2023-06-22T07:18:19;15.82;;;8.82;;
67696;SDS011;54486;51.442;6.778;2023-06-22T07:20:46;15.77;;;8.73;;
67696;SDS011;54486;51.442;6.778;2023-06-22T07:23:14;16.88;;;8.95;;
67696;SDS011;54486;51.442;6.778;2023-06-22T07:25:41;15.80;;;8.70;;
67696;SDS011;54486;51.442;6.778;2023-06-22T07:28:09;16.33;;;8.65;;
67696;SDS011;54486;51.442;6.778;2023-06-22T07:30:36;16.92;;;9.50;;
67696;SDS011;54486;51.442;6.778;2023-06-22T07:33:03;16.52;;;8.82;;
67696;SDS011;54486;51.442;6.778;2023-06-22T07:35:31;17.90;;;10.35;;
67696;SDS011;54486;51.442;6.778;2023-06-22T07:37:59;18.70;;;10.07;;
67696;SDS011;54486;51.442;6.778;2023-06-22T07:40:31;16.40;;;10.00;;
67696;SDS011;54486;51.442;6.778;2023-06-22T07:42:58;16.73;;;9.10;;
67696;SDS011;54486;51.442;6.778;2023-06-22T07:45:25;17.55;;;9.82;;
67696;SDS011;54486;51.442;6.778;2023-06-22T07:47:52;17.92;;;9.77;;
67696;SDS011;54486;51.442;6.778;2023-06-22T07:50:19;17.07;;;10.63;;
67696;SDS011;54486;51.442;6.778;2023-06-22T07:52:47;18.00;;;10.77;;
67696;SDS011;54486;51.442;6.778;2023-06-22T07:55:14;17.45;;;10.25;;
67696;SDS011;54486;51.442;6.778;2023-06-22T07:57:41;18.35;;;10.75;;
67696;SDS011;54486;51.442;6.778;2023-06-22T08:00:09;18.02;;;10.38;;
67696;SDS011;54486;51.442;6.778;2023-06-22T08:02:42;18.58;;;10.68;;
67696;SDS011;54486;51.442;6.778;2023-06-22T08:05:10;18.40;;;10.27;;
67696;SDS011;54486;51.442;6.778;2023-06-22T08:07:41;18.23;;;10.32;;
67696;SDS011;54486;51.442;6.778;2023-06-22T08:10:10;18.65;;;10.52;;
67696;SDS011;54486;51.442;6.778;2023-06-22T08:12:41;17.50;;;10.18;;
67696;SDS011;54486;51.442;6.778;2023-06-22T08:15:09;18.23;;;10.15;;
67696;SDS011;54486;51.442;6.778;2023-06-22T08:17:37;18.10;;;10.93;;
67696;SDS011;54486;51.442;6.778;2023-06-22T08:20:06;18.48;;;10.90;;
67696;SDS011;54486;51.442;6.778;2023-06-22T08:22:36;18.25;;;10.30;;
67696;SDS011;54486;51.442;6.778;2023-06-22T08:25:03;18.77;;;10.90;;
67696;SDS011;54486;51.442;6.778;2023-06-22T08:27:31;18.30;;;11.02;;
67696;SDS011;54486;51.442;6.778;2023-06-22T08:30:02;17.23;;;10.73;;
67696;SDS011;54486;51.442;6.778;2023-06-22T08:32:29;18.75;;;10.57;;
67696;SDS011;54486;51.442;6.778;2023-06-22T08:34:57;17.70;;;10.15;;
67696;SDS011;54486;51.442;6.778;2023-06-22T08:37:24;18.33;;;10.88;;
67696;SDS011;54486;51.442;6.778;2023-06-22T08:39:58;19.00;;;10.17;;
67696;SDS011;54486;51.442;6.778;2023-06-22T08:42:26;18.80;;;10.55;;
67696;SDS011;54486;51.442;6.778;2023-06-22T08:44:53;16.88;;;10.20;;
67696;SDS011;54486;51.442;6.778;2023-06-22T08:47:21;18.67;;;10.65;;
67696;SDS011;54486;51.442;6.778;2023-06-22T08:49:50;18.63;;;10.33;;
67696;SDS011;54486;51.442;6.778;2023-06-22T08:52:17;17.92;;;11.10;;
67696;SDS011;54486;51.442;6.778;2023-06-22T08:54:47;17.77;;;10.88;;
67696;SDS011;54486;51.442;6.778;2023-06-22T08:57:14;19.48;;;10.75;;
67696;SDS011;54486;51.442;6.778;2023-06-22T08:59:42;17.60;;;10.55;;
67696;SDS011;54486;51.442;6.778;2023-06-22T09:02:09;18.60;;;10.63;;
67696;SDS011;54486;51.442;6.778;2023-06-22T09:04:37;20.02;;;11.18;;
67696;SDS011;54486;51.442;6.778;2023-06-22T09:07:05;18.98;;;10.38;;
67696;SDS011;54486;51.442;6.778;2023-06-22T09:09:32;17.98;;;10.38;;
67696;SDS011;54486;51.442;6.778;2023-06-22T09:11:59;18.98;;;10.55;;
67696;SDS011;54486;51.442;6.778;2023-06-22T09:14:26;17.83;;;10.00;;
67696;SDS011;54486;51.442;6.778;2023-06-22T09:16:53;18.27;;;10.57;;
67696;SDS011;54486;51.442;6.778;2023-06-22T09:19:20;17.15;;;10.18;;
67696;SDS011;54486;51.442;6.778;2023-06-22T09:21:47;17.30;;;9.73;;
67696;SDS011;54486;51.442;6.778;2023-06-22T09:24:14;16.80;;;9.82;;
67696;SDS011;54486;51.442;6.778;2023-06-22T09:26:41;17.17;;;9.37;;
67696;SDS011;54486;51.442;6.778;2023-06-22T09:29:09;17.00;;;9.77;;
67696;SDS011;54486;51.442;6.778;2023-06-22T09:31:36;15.68;;;9.98;;
67696;SDS011;54486;51.442;6.778;2023-06-22T09:34:03;16.93;;;9.53;;
67696;SDS011;54486;51.442;6.778;2023-06-22T09:36:30;18.60;;;10.15;;
67696;SDS011;54486;51.442;6.778;2023-06-22T09:38:56;17.00;;;9.00;;
67696;SDS011;54486;51.442;6.778;2023-06-22T09:41:25;17.02;;;9.82;;
67696;SDS011;54486;51.442;6.778;2023-06-22T09:43:52;17.73;;;9.57;;
67696;SDS011;54486;51.442;6.778;2023-06-22T09:46:22;16.45;;;9.48;;
67696;SDS011;54486;51.442;6.778;2023-06-22T09:48:52;14.98;;;9.05;;
67696;SDS011;54486;51.442;6.778;2023-06-22T09:51:19;18.63;;;9.73;;
67696;SDS011;54486;51.442;6.778;2023-06-22T09:53:48;16.40;;;9.90;;
67696;SDS011;54486;51.442;6.778;2023-06-22T09:56:15;16.65;;;9.48;;
67696;SDS011;54486;51.442;6.778;2023-06-22T09:58:43;18.08;;;9.90;;
67696;SDS011;54486;51.442;6.778;2023-06-22T10:01:12;18.45;;;10.05;;
67696;SDS011;54486;51.442;6.778;2023-06-22T10:03:42;18.95;;;9.82;;
67696;SDS011;54486;51.442;6.778;2023-06-22T10:06:11;17.90;;;10.15;;
67696;SDS011;54486;51.442;6.778;2023-06-22T10:08:38;16.83;;;10.43;;
67696;SDS011;54486;51.442;6.778;2023-06-22T10:11:06;15.93;;;9.35;;
67696;SDS011;54486;51.442;6.778;2023-06-22T10:13:33;15.07;;;8.60;;
67696;SDS011;54486;51.442;6.778;2023-06-22T10:16:00;16.50;;;9.32;;
67696;SDS011;54486;51.442;6.778;2023-06-22T10:18:27;17.77;;;9.55;;
67696;SDS011;54486;51.442;6.778;2023-06-22T10:20:53;17.05;;;8.98;;
67696;SDS011;54486;51.442;6.778;2023-06-22T10:23:21;16.83;;;8.60;;
67696;SDS011;54486;51.442;6.778;2023-06-22T10:25:49;15.43;;;9.25;;
67696;SDS011;54486;51.442;6.778;2023-06-22T10:28:16;14.83;;;8.40;;
67696;SDS011;54486;51.442;6.778;2023-06-22T10:30:43;13.98;;;8.15;;
67696;SDS011;54486;51.442;6.778;2023-06-22T10:33:10;16.38;;;8.75;;
67696;SDS011;54486;51.442;6.778;2023-06-22T10:35:38;15.45;;;8.55;;
67696;SDS011;54486;51.442;6.778;2023-06-22T10:38:05;16.13;;;8.67;;
67696;SDS011;54486;51.442;6.778;2023-06-22T10:40:33;14.07;;;8.27;;
67696;SDS011;54486;51.442;6.778;2023-06-22T10:43:00;13.70;;;6.78;;
67696;SDS011;54486;51.442;6.778;2023-06-22T10:45:27;14.38;;;6.63;;
67696;SDS011;54486;51.442;6.778;2023-06-22T10:47:55;12.82;;;6.70;;
67696;SDS011;54486;51.442;6.778;2023-06-22T10:50:23;12.93;;;7.20;;
67696;SDS011;54486;51.442;6.778;2023-06-22T10:52:53;13.57;;;6.82;;
67696;SDS011;54486;51.442;6.778;2023-06-22T10:55:24;14.15;;;7.90;;
67696;SDS011;54486;51.442;6.778;2023-06-22T10:57:52;13.93;;;7.18;;
67696;SDS011;54486;51.442;6.778;2023-06-22T11:00:19;13.73;;;7.70;;
67696;SDS011;54486;51.442;6.778;2023-06-22T11:02:47;13.02;;;7.28;;
67696;SDS011;54486;51.442;6.778;2023-06-22T11:05:15;12.20;;;6.72;;
67696;SDS011;54486;51.442;6.778;2023-06-22T11:07:42;13.25;;;6.82;;
67696;SDS011;54486;51.442;6.778;2023-06-22T11:10:15;13.25;;;7.38;;
67696;SDS011;54486;51.442;6.778;2023-06-22T11:12:43;13.40;;;7.20;;
67696;SDS011;54486;51.442;6.778;2023-06-22T11:15:11;12.98;;;7.40;;
67696;SDS011;54486;51.442;6.778;2023-06-22T11:17:38;14.70;;;7.80;;
67696;SDS011;54486;51.442;6.778;2023-06-22T11:20:07;13.52;;;7.45;;
67696;SDS011;54486;51.442;6.778;2023-06-22T11:22:39;13.05;;;6.95;;
67696;SDS011;54486;51.442;6.778;2023-06-22T11:25:06;13.68;;;6.95;;
67696;SDS011;54486;51.442;6.778;2023-06-22T11:27:34;13.90;;;7.43;;
67696;SDS011;54486;51.442;6.778;2023-06-22T11:30:02;14.20;;;7.85;;
67696;SDS011;54486;51.442;6.778;2023-06-22T11:32:32;15.57;;;8.80;;
67696;SDS011;54486;51.442;6.778;2023-06-22T11:34:59;15.60;;;8.55;;
67696;SDS011;54486;51.442;6.778;2023-06-22T11:37:26;14.43;;;8.55;;
67696;SDS011;54486;51.442;6.778;2023-06-22T11:39:53;16.27;;;8.60;;
67696;SDS011;54486;51.442;6.778;2023-06-22T11:42:33;15.45;;;9.15;;
67696;SDS011;54486;51.442;6.778;2023-06-22T11:45:01;17.88;;;9.77;;
67696;SDS011;54486;51.442;6.778;2023-06-22T11:47:29;17.63;;;9.88;;
67696;SDS011;54486;51.442;6.778;2023-06-22T11:49:56;19.80;;;10.23;;
67696;SDS011;54486;51.442;6.778;2023-06-22T11:52:25;18.02;;;10.35;;
67696;SDS011;54486;51.442;6.778;2023-06-22T11:54:53;19.20;;;11.15;;
67696;SDS011;54486;51.442;6.778;2023-06-22T11:57:20;18.20;;;10.18;;
67696;SDS011;54486;51.442;6.778;2023-06-22T11:59:47;20.27;;;11.10;;
67696;SDS011;54486;51.442;6.778;2023-06-22T12:02:14;20.30;;;11.77;;
67696;SDS011;54486;51.442;6.778;2023-06-22T12:04:41;21.20;;;11.43;;
67696;SDS011;54486;51.442;6.778;2023-06-22T12:07:09;20.15;;;11.60;;
67696;SDS011;54486;51.442;6.778;2023-06-22T12:09:37;20.65;;;11.52;;
67696;SDS011;54486;51.442;6.778;2023-06-22T12:12:05;22.48;;;12.25;;
67696;SDS011;54486;51.442;6.778;2023-06-22T12:14:33;20.02;;;11.75;;
67696;SDS011;54486;51.442;6.778;2023-06-22T12:17:00;20.23;;;11.45;;
67696;SDS011;54486;51.442;6.778;2023-06-22T12:19:27;19.42;;;11.05;;
67696;SDS011;54486;51.442;6.778;2023-06-22T12:21:56;22.13;;;11.65;;
67696;SDS011;54486;51.442;6.778;2023-06-22T12:24:23;22.03;;;12.73;;
67696;SDS011;54486;51.442;6.778;2023-06-22T12:26:50;22.60;;;12.35;;
67696;SDS011;54486;51.442;6.778;2023-06-22T12:29:19;24.90;;;13.17;;
67696;SDS011;54486;51.442;6.778;2023-06-22T12:31:46;21.17;;;12.55;;
67696;SDS011;54486;51.442;6.778;2023-06-22T12:34:13;23.10;;;13.40;;
67696;SDS011;54486;51.442;6.778;2023-06-22T12:36:40;22.58;;;13.10;;
67696;SDS011;54486;51.442;6.778;2023-06-22T12:39:07;21.50;;;12.35;;
67696;SDS011;54486;51.442;6.778;2023-06-22T12:41:34;22.25;;;12.70;;
67696;SDS011;54486;51.442;6.778;2023-06-22T12:44:02;20.33;;;11.82;;
67696;SDS011;54486;51.442;6.778;2023-06-22T12:46:29;19.75;;;12.43;;
67696;SDS011;54486;51.442;6.778;2023-06-22T12:49:03;20.63;;;12.15;;
67696;SDS011;54486;51.442;6.778;2023-06-22T12:51:31;20.10;;;12.60;;
67696;SDS011;54486;51.442;6.778;2023-06-22T12:53:58;21.52;;;12.60;;
67696;SDS011;54486;51.442;6.778;2023-06-22T12:56:25;21.98;;;13.77;;
67696;SDS011;54486;51.442;6.778;2023-06-22T12:58:52;21.05;;;12.90;;
67696;SDS011;54486;51.442;6.778;2023-06-22T13:01:20;23.00;;;12.65;;
67696;SDS011;54486;51.442;6.778;2023-06-22T13:03:47;23.03;;;13.53;;
67696;SDS011;54486;51.442;6.778;2023-06-22T13:06:14;24.25;;;13.50;;
67696;SDS011;54486;51.442;6.778;2023-06-22T13:08:41;20.90;;;13.27;;
67696;SDS011;54486;51.442;6.778;2023-06-22T13:11:12;21.38;;;13.00;;
67696;SDS011;54486;51.442;6.778;2023-06-22T13:13:39;22.67;;;13.30;;
67696;SDS011;54486;51.442;6.778;2023-06-22T13:16:07;23.00;;;13.43;;
67696;SDS011;54486;51.442;6.778;2023-06-22T13:18:34;25.70;;;14.43;;
67696;SDS011;54486;51.442;6.778;2023-06-22T13:21:03;24.25;;;14.57;;
67696;SDS011;54486;51.442;6.778;2023-06-22T13:23:32;24.13;;;13.93;;
67696;SDS011;54486;51.442;6.778;2023-06-22T13:26:00;25.17;;;14.23;;
67696;SDS011;54486;51.442;6.778;2023-06-22T13:28:28;23.70;;;13.73;;
67696;SDS011;54486;51.442;6.778;2023-06-22T13:30:56;26.92;;;14.93;;
67696;SDS011;54486;51.442;6.778;2023-06-22T13:33:24;23.60;;;14.50;;
67696;SDS011;54486;51.442;6.778;2023-06-22T13:35:52;25.15;;;14.55;;
67696;SDS011;54486;51.442;6.778;2023-06-22T13:38:19;23.17;;;15.00;;
67696;SDS011;54486;51.442;6.778;2023-06-22T13:40:46;23.92;;;14.85;;
67696;SDS011;54486;51.442;6.778;2023-06-22T13:43:14;24.90;;;15.00;;
67696;SDS011;54486;51.442;6.778;2023-06-22T13:45:42;24.37;;;14.17;;
67696;SDS011;54486;51.442;6.778;2023-06-22T13:48:09;26.23;;;16.00;;
67696;SDS011;54486;51.442;6.778;2023-06-22T13:50:37;23.40;;;15.00;;
67696;SDS011;54486;51.442;6.778;2023-06-22T13:53:04;24.10;;;15.40;;
67696;SDS011;54486;51.442;6.778;2023-06-22T13:55:32;23.20;;;14.50;;
67696;SDS011;54486;51.442;6.778;2023-06-22T13:57:59;23.42;;;14.63;;
67696;SDS011;54486;51.442;6.778;2023-06-22T14:00:26;23.08;;;14.43;;
67696;SDS011;54486;51.442;6.778;2023-06-22T14:02:55;24.48;;;13.95;;
67696;SDS011;54486;51.442;6.778;2023-06-22T14:05:23;23.30;;;14.60;;
67696;SDS011;54486;51.442;6.778;2023-06-22T14:07:50;22.20;;;14.00;;
67696;SDS011;54486;51.442;6.778;2023-06-22T14:10:17;20.85;;;13.30;;
67696;SDS011;54486;51.442;6.778;2023-06-22T14:12:43;21.50;;;13.82;;
67696;SDS011;54486;51.442;6.778;2023-06-22T14:15:11;21.43;;;13.13;;
67696;SDS011;54486;51.442;6.778;2023-06-22T14:17:38;22.73;;;14.02;;
67696;SDS011;54486;51.442;6.778;2023-06-22T14:20:05;24.80;;;14.13;;
67696;SDS011;54486;51.442;6.778;2023-06-22T14:22:34;21.67;;;12.60;;
67696;SDS011;54486;51.442;6.778;2023-06-22T14:25:04;22.08;;;13.55;;
67696;SDS011;54486;51.442;6.778;2023-06-22T14:27:31;20.70;;;12.25;;
67696;SDS011;54486;51.442;6.778;2023-06-22T14:29:59;22.10;;;13.77;;
67696;SDS011;54486;51.442;6.778;2023-06-22T14:32:27;24.77;;;14.40;;
67696;SDS011;54486;51.442;6.778;2023-06-22T14:34:57;21.75;;;13.50;;
67696;SDS011;54486;51.442;6.778;2023-06-22T14:37:25;23.20;;;13.48;;
67696;SDS011;54486;51.442;6.778;2023-06-22T14:39:52;23.33;;;13.40;;
67696;SDS011;54486;51.442;6.778;2023-06-22T14:42:19;22.00;;;13.20;;